sensor_id;sensor_type;location;lat;lon;timestamp;temperature;humidity
15906;DHT22;8051;50.820;4.884;2022-11-03T00:01:08;11.40;99.90
15906;DHT22;8051;50.820;4.884;2022-11-03T00:03:35;11.40;99.90
15906;DHT22;8051;50.820;4.884;2022-11-03T00:06:02;11.40;99.90
15906;DHT22;8051;50.820;4.884;2022-11-03T00:08:35;11.40;99.90
15906;DHT22;8051;50.820;4.884;2022-11-03T00:11:08;11.40;99.90
15906;DHT22;8051;50.820;4.884;2022-11-03T00:13:38;11.40;99.90
15906;DHT22;8051;50.820;4.884;2022-11-03T00:16:09;11.40;99.90
15906;DHT22;8051;50.820;4.884;2022-11-03T00:18:36;11.40;99.90
15906;DHT22;8051;50.820;4.884;2022-11-03T00:21:05;11.50;99.90
15906;DHT22;8051;50.820;4.884;2022-11-03T00:23:34;11.50;99.90
15906;DHT22;8051;50.820;4.884;2022-11-03T00:26:06;11.50;99.90
15906;DHT22;8051;50.820;4.884;2022-11-03T00:28:35;11.50;99.90
15906;DHT22;8051;50.820;4.884;2022-11-03T00:31:07;11.60;99.90
15906;DHT22;8051;50.820;4.884;2022-11-03T00:33:35;11.60;99.90
15906;DHT22;8051;50.820;4.884;2022-11-03T00:36:03;11.70;99.90
15906;DHT22;8051;50.820;4.884;2022-11-03T00:38:31;11.70;99.90
15906;DHT22;8051;50.820;4.884;2022-11-03T00:41:00;11.70;99.90
15906;DHT22;8051;50.820;4.884;2022-11-03T00:43:29;11.70;99.90
15906;DHT22;8051;50.820;4.884;2022-11-03T00:45:56;11.70;99.90
15906;DHT22;8051;50.820;4.884;2022-11-03T00:48:26;11.70;99.90
15906;DHT22;8051;50.820;4.884;2022-11-03T00:51:02;11.70;99.90
15906;DHT22;8051;50.820;4.884;2022-11-03T00:53:30;11.70;99.90
15906;DHT22;8051;50.820;4.884;2022-11-03T00:55:58;11.70;99.90
15906;DHT22;8051;50.820;4.884;2022-11-03T00:58:26;11.70;99.90
15906;DHT22;8051;50.820;4.884;2022-11-03T01:00:59;11.70;99.90
15906;DHT22;8051;50.820;4.884;2022-11-03T01:03:28;11.70;99.90
15906;DHT22;8051;50.820;4.884;2022-11-03T01:05:55;11.70;99.90
15906;DHT22;8051;50.820;4.884;2022-11-03T01:08:55;11.70;99.90
15906;DHT22;8051;50.820;4.884;2022-11-03T01:11:23;11.70;99.90
15906;DHT22;8051;50.820;4.884;2022-11-03T01:14:09;11.80;99.90
15906;DHT22;8051;50.820;4.884;2022-11-03T01:16:37;11.80;99.90
15906;DHT22;8051;50.820;4.884;2022-11-03T01:19:06;11.80;99.90
15906;DHT22;8051;50.820;4.884;2022-11-03T01:21:34;11.70;99.90
15906;DHT22;8051;50.820;4.884;2022-11-03T01:24:01;11.80;99.90
15906;DHT22;8051;50.820;4.884;2022-11-03T01:26:29;11.80;99.90
15906;DHT22;8051;50.820;4.884;2022-11-03T01:28:58;11.80;99.90
15906;DHT22;8051;50.820;4.884;2022-11-03T01:31:26;11.80;99.90
15906;DHT22;8051;50.820;4.884;2022-11-03T01:33:55;11.80;99.90
15906;DHT22;8051;50.820;4.884;2022-11-03T01:36:24;11.80;99.90
15906;DHT22;8051;50.820;4.884;2022-11-03T01:38:53;11.80;99.90
15906;DHT22;8051;50.820;4.884;2022-11-03T01:41:23;11.80;99.90
15906;DHT22;8051;50.820;4.884;2022-11-03T01:44:24;11.80;99.90
15906;DHT22;8051;50.820;4.884;2022-11-03T01:46:54;11.80;99.90
15906;DHT22;8051;50.820;4.884;2022-11-03T01:49:29;11.80;99.90
15906;DHT22;8051;50.820;4.884;2022-11-03T01:52:03;11.80;99.90
15906;DHT22;8051;50.820;4.884;2022-11-03T01:54:31;11.80;99.90
15906;DHT22;8051;50.820;4.884;2022-11-03T01:57:04;11.80;99.90
15906;DHT22;8051;50.820;4.884;2022-11-03T01:59:33;11.80;99.90
15906;DHT22;8051;50.820;4.884;2022-11-03T02:02:01;11.70;99.90
15906;DHT22;8051;50.820;4.884;2022-11-03T02:04:30;11.70;99.90
15906;DHT22;8051;50.820;4.884;2022-11-03T02:07:07;11.70;99.90
15906;DHT22;8051;50.820;4.884;2022-11-03T02:09:36;11.60;99.90
15906;DHT22;8051;50.820;4.884;2022-11-03T02:12:05;11.60;99.90
15906;DHT22;8051;50.820;4.884;2022-11-03T02:14:35;11.60;99.90
15906;DHT22;8051;50.820;4.884;2022-11-03T02:17:06;11.50;99.90
15906;DHT22;8051;50.820;4.884;2022-11-03T02:19:39;11.50;99.90
15906;DHT22;8051;50.820;4.884;2022-11-03T02:22:25;11.50;99.90
15906;DHT22;8051;50.820;4.884;2022-11-03T02:25:02;11.50;99.90
15906;DHT22;8051;50.820;4.884;2022-11-03T02:27:33;11.40;99.90
15906;DHT22;8051;50.820;4.884;2022-11-03T02:30:01;11.40;99.90
15906;DHT22;8051;50.820;4.884;2022-11-03T02:32:32;11.40;99.90
15906;DHT22;8051;50.820;4.884;2022-11-03T02:35:10;11.40;99.90
15906;DHT22;8051;50.820;4.884;2022-11-03T02:37:41;11.40;99.90
15906;DHT22;8051;50.820;4.884;2022-11-03T02:40:12;11.40;99.90
15906;DHT22;8051;50.820;4.884;2022-11-03T02:42:46;11.30;99.90
15906;DHT22;8051;50.820;4.884;2022-11-03T02:45:18;11.40;99.90
15906;DHT22;8051;50.820;4.884;2022-11-03T02:47:47;11.40;99.90
15906;DHT22;8051;50.820;4.884;2022-11-03T02:50:15;11.40;99.90
15906;DHT22;8051;50.820;4.884;2022-11-03T02:52:47;11.40;99.90
15906;DHT22;8051;50.820;4.884;2022-11-03T02:55:24;11.40;99.90
15906;DHT22;8051;50.820;4.884;2022-11-03T02:58:00;11.40;99.90
15906;DHT22;8051;50.820;4.884;2022-11-03T03:00:30;11.40;99.90
15906;DHT22;8051;50.820;4.884;2022-11-03T03:03:07;11.40;99.90
15906;DHT22;8051;50.820;4.884;2022-11-03T03:05:35;11.40;99.90
15906;DHT22;8051;50.820;4.884;2022-11-03T03:08:09;11.40;99.90
15906;DHT22;8051;50.820;4.884;2022-11-03T03:10:39;11.40;99.90
15906;DHT22;8051;50.820;4.884;2022-11-03T03:13:10;11.40;99.90
15906;DHT22;8051;50.820;4.884;2022-11-03T03:15:43;11.40;99.90
15906;DHT22;8051;50.820;4.884;2022-11-03T03:18:18;11.50;99.90
15906;DHT22;8051;50.820;4.884;2022-11-03T03:20:52;11.40;99.90
15906;DHT22;8051;50.820;4.884;2022-11-03T03:23:23;11.40;99.90
15906;DHT22;8051;50.820;4.884;2022-11-03T03:25:54;11.40;99.90
15906;DHT22;8051;50.820;4.884;2022-11-03T03:28:25;11.40;99.90
15906;DHT22;8051;50.820;4.884;2022-11-03T03:30:56;11.40;99.90
15906;DHT22;8051;50.820;4.884;2022-11-03T03:33:26;11.40;99.90
15906;DHT22;8051;50.820;4.884;2022-11-03T03:35:55;11.40;99.90
15906;DHT22;8051;50.820;4.884;2022-11-03T03:38:26;11.50;99.90
15906;DHT22;8051;50.820;4.884;2022-11-03T03:40:56;11.50;99.90
15906;DHT22;8051;50.820;4.884;2022-11-03T03:43:27;11.50;99.90
15906;DHT22;8051;50.820;4.884;2022-11-03T03:45:58;11.50;99.90
15906;DHT22;8051;50.820;4.884;2022-11-03T03:48:27;11.50;99.90
15906;DHT22;8051;50.820;4.884;2022-11-03T03:50:54;11.50;99.90
15906;DHT22;8051;50.820;4.884;2022-11-03T03:53:26;11.50;99.90
15906;DHT22;8051;50.820;4.884;2022-11-03T03:55:55;11.50;99.90
15906;DHT22;8051;50.820;4.884;2022-11-03T03:58:25;11.50;99.90
15906;DHT22;8051;50.820;4.884;2022-11-03T04:00:53;11.50;99.90
15906;DHT22;8051;50.820;4.884;2022-11-03T04:03:22;11.50;99.90
15906;DHT22;8051;50.820;4.884;2022-11-03T04:05:52;11.50;99.90
15906;DHT22;8051;50.820;4.884;2022-11-03T04:08:19;11.50;99.90
15906;DHT22;8051;50.820;4.884;2022-11-03T04:10:47;11.60;99.90
15906;DHT22;8051;50.820;4.884;2022-11-03T04:13:30;11.50;99.90
15906;DHT22;8051;50.820;4.884;2022-11-03T04:16:15;11.50;99.90
15906;DHT22;8051;50.820;4.884;2022-11-03T04:19:00;11.50;99.90
15906;DHT22;8051;50.820;4.884;2022-11-03T04:21:44;11.50;99.90
15906;DHT22;8051;50.820;4.884;2022-11-03T04:24:29;11.50;99.90
15906;DHT22;8051;50.820;4.884;2022-11-03T04:27:01;11.50;99.90
15906;DHT22;8051;50.820;4.884;2022-11-03T04:29:32;11.50;99.90
15906;DHT22;8051;50.820;4.884;2022-11-03T04:32:00;11.50;99.90
15906;DHT22;8051;50.820;4.884;2022-11-03T04:34:27;11.50;99.90
15906;DHT22;8051;50.820;4.884;2022-11-03T04:36:54;11.50;99.90
15906;DHT22;8051;50.820;4.884;2022-11-03T04:39:22;11.50;99.90
15906;DHT22;8051;50.820;4.884;2022-11-03T04:41:49;11.50;99.90
15906;DHT22;8051;50.820;4.884;2022-11-03T04:44:16;11.60;99.90
15906;DHT22;8051;50.820;4.884;2022-11-03T04:46:46;11.50;99.90
15906;DHT22;8051;50.820;4.884;2022-11-03T04:49:19;11.50;99.90
15906;DHT22;8051;50.820;4.884;2022-11-03T04:51:48;11.50;99.90
15906;DHT22;8051;50.820;4.884;2022-11-03T04:54:18;11.50;99.90
15906;DHT22;8051;50.820;4.884;2022-11-03T04:56:47;11.50;99.90
15906;DHT22;8051;50.820;4.884;2022-11-03T04:59:15;11.40;99.90
15906;DHT22;8051;50.820;4.884;2022-11-03T05:01:45;11.40;99.90
15906;DHT22;8051;50.820;4.884;2022-11-03T05:04:15;11.40;99.90
15906;DHT22;8051;50.820;4.884;2022-11-03T05:06:46;11.40;99.90
15906;DHT22;8051;50.820;4.884;2022-11-03T05:09:18;11.50;99.90
15906;DHT22;8051;50.820;4.884;2022-11-03T05:11:46;11.50;99.90
15906;DHT22;8051;50.820;4.884;2022-11-03T05:14:15;11.50;99.90
15906;DHT22;8051;50.820;4.884;2022-11-03T05:16:45;11.50;99.90
15906;DHT22;8051;50.820;4.884;2022-11-03T05:19:17;11.50;99.90
15906;DHT22;8051;50.820;4.884;2022-11-03T05:21:46;11.60;99.90
15906;DHT22;8051;50.820;4.884;2022-11-03T05:24:15;11.60;99.90
15906;DHT22;8051;50.820;4.884;2022-11-03T05:26:45;11.60;99.90
15906;DHT22;8051;50.820;4.884;2022-11-03T05:29:15;11.60;99.90
15906;DHT22;8051;50.820;4.884;2022-11-03T05:31:47;11.60;99.90
15906;DHT22;8051;50.820;4.884;2022-11-03T05:34:31;11.60;99.90
15906;DHT22;8051;50.820;4.884;2022-11-03T05:36:59;11.60;99.90
15906;DHT22;8051;50.820;4.884;2022-11-03T05:39:36;11.70;99.90
15906;DHT22;8051;50.820;4.884;2022-11-03T05:42:23;11.70;99.90
15906;DHT22;8051;50.820;4.884;2022-11-03T05:44:52;11.70;99.90
15906;DHT22;8051;50.820;4.884;2022-11-03T05:47:23;11.70;99.90
15906;DHT22;8051;50.820;4.884;2022-11-03T05:49:52;11.80;99.90
15906;DHT22;8051;50.820;4.884;2022-11-03T05:52:22;11.80;99.90
15906;DHT22;8051;50.820;4.884;2022-11-03T05:54:51;11.80;99.90
15906;DHT22;8051;50.820;4.884;2022-11-03T05:57:20;11.80;99.90
15906;DHT22;8051;50.820;4.884;2022-11-03T05:59:49;11.80;99.90
15906;DHT22;8051;50.820;4.884;2022-11-03T06:02:30;11.80;99.90
15906;DHT22;8051;50.820;4.884;2022-11-03T06:04:59;11.80;99.90
15906;DHT22;8051;50.820;4.884;2022-11-03T06:07:28;11.80;99.90
15906;DHT22;8051;50.820;4.884;2022-11-03T06:09:57;11.80;99.90
15906;DHT22;8051;50.820;4.884;2022-11-03T06:12:25;11.80;99.90
15906;DHT22;8051;50.820;4.884;2022-11-03T06:14:55;11.80;99.90
15906;DHT22;8051;50.820;4.884;2022-11-03T06:17:26;11.80;99.90
15906;DHT22;8051;50.820;4.884;2022-11-03T06:19:56;11.80;99.90
15906;DHT22;8051;50.820;4.884;2022-11-03T06:22:24;11.80;99.90
15906;DHT22;8051;50.820;4.884;2022-11-03T06:24:56;11.80;99.90
15906;DHT22;8051;50.820;4.884;2022-11-03T06:27:27;11.80;99.90
15906;DHT22;8051;50.820;4.884;2022-11-03T06:29:57;11.80;99.90
15906;DHT22;8051;50.820;4.884;2022-11-03T06:32:27;11.80;99.90
15906;DHT22;8051;50.820;4.884;2022-11-03T06:34:56;11.80;99.90
15906;DHT22;8051;50.820;4.884;2022-11-03T06:37:26;11.80;99.90
15906;DHT22;8051;50.820;4.884;2022-11-03T06:39:59;11.80;99.90
15906;DHT22;8051;50.820;4.884;2022-11-03T06:42:30;11.70;99.90
15906;DHT22;8051;50.820;4.884;2022-11-03T06:44:58;11.80;99.90
15906;DHT22;8051;50.820;4.884;2022-11-03T06:47:29;11.80;99.90
15906;DHT22;8051;50.820;4.884;2022-11-03T06:49:58;11.80;99.90
15906;DHT22;8051;50.820;4.884;2022-11-03T06:52:30;11.80;99.90
15906;DHT22;8051;50.820;4.884;2022-11-03T06:55:20;11.80;99.90
15906;DHT22;8051;50.820;4.884;2022-11-03T06:57:51;11.80;99.90
15906;DHT22;8051;50.820;4.884;2022-11-03T07:00:21;11.80;99.90
15906;DHT22;8051;50.820;4.884;2022-11-03T07:02:56;11.80;99.90
15906;DHT22;8051;50.820;4.884;2022-11-03T07:05:25;11.80;99.90
15906;DHT22;8051;50.820;4.884;2022-11-03T07:07:55;11.80;99.90
15906;DHT22;8051;50.820;4.884;2022-11-03T07:10:25;11.80;99.90
15906;DHT22;8051;50.820;4.884;2022-11-03T07:12:54;11.90;99.90
15906;DHT22;8051;50.820;4.884;2022-11-03T07:15:27;11.90;99.90
15906;DHT22;8051;50.820;4.884;2022-11-03T07:17:59;11.90;99.90
15906;DHT22;8051;50.820;4.884;2022-11-03T07:20:26;12.00;99.90
15906;DHT22;8051;50.820;4.884;2022-11-03T07:22:55;12.00;99.90
15906;DHT22;8051;50.820;4.884;2022-11-03T07:25:26;12.00;99.90
15906;DHT22;8051;50.820;4.884;2022-11-03T07:27:54;12.00;99.90
15906;DHT22;8051;50.820;4.884;2022-11-03T07:30:28;12.00;99.90
15906;DHT22;8051;50.820;4.884;2022-11-03T07:33:09;12.10;99.90
15906;DHT22;8051;50.820;4.884;2022-11-03T07:35:40;12.10;99.90
15906;DHT22;8051;50.820;4.884;2022-11-03T07:38:12;12.10;99.90
15906;DHT22;8051;50.820;4.884;2022-11-03T07:40:40;12.10;99.90
15906;DHT22;8051;50.820;4.884;2022-11-03T07:43:13;12.20;99.90
15906;DHT22;8051;50.820;4.884;2022-11-03T07:45:43;12.20;99.90
15906;DHT22;8051;50.820;4.884;2022-11-03T07:48:26;12.30;99.90
15906;DHT22;8051;50.820;4.884;2022-11-03T07:50:55;12.30;99.90
15906;DHT22;8051;50.820;4.884;2022-11-03T07:53:33;12.40;99.90
15906;DHT22;8051;50.820;4.884;2022-11-03T07:56:11;12.40;99.90
15906;DHT22;8051;50.820;4.884;2022-11-03T07:58:40;12.50;99.90
15906;DHT22;8051;50.820;4.884;2022-11-03T08:01:24;12.50;99.90
15906;DHT22;8051;50.820;4.884;2022-11-03T08:03:56;12.50;99.90
15906;DHT22;8051;50.820;4.884;2022-11-03T08:06:24;12.50;99.90
15906;DHT22;8051;50.820;4.884;2022-11-03T08:08:52;12.40;99.90
15906;DHT22;8051;50.820;4.884;2022-11-03T08:11:19;12.50;99.90
15906;DHT22;8051;50.820;4.884;2022-11-03T08:13:48;12.50;99.90
15906;DHT22;8051;50.820;4.884;2022-11-03T08:16:16;12.60;99.90
15906;DHT22;8051;50.820;4.884;2022-11-03T08:18:43;12.60;99.90
15906;DHT22;8051;50.820;4.884;2022-11-03T08:21:12;12.60;99.90
15906;DHT22;8051;50.820;4.884;2022-11-03T08:23:40;12.70;99.90
15906;DHT22;8051;50.820;4.884;2022-11-03T08:26:07;12.70;99.90
15906;DHT22;8051;50.820;4.884;2022-11-03T08:28:35;12.80;99.90
15906;DHT22;8051;50.820;4.884;2022-11-03T08:31:02;12.80;99.90
15906;DHT22;8051;50.820;4.884;2022-11-03T08:33:31;12.80;99.90
15906;DHT22;8051;50.820;4.884;2022-11-03T08:36:00;12.80;99.90
15906;DHT22;8051;50.820;4.884;2022-11-03T08:38:29;12.90;99.90
15906;DHT22;8051;50.820;4.884;2022-11-03T08:40:57;12.90;99.90
15906;DHT22;8051;50.820;4.884;2022-11-03T08:43:24;12.90;99.90
15906;DHT22;8051;50.820;4.884;2022-11-03T08:45:52;12.90;99.90
15906;DHT22;8051;50.820;4.884;2022-11-03T08:48:20;12.90;99.90
15906;DHT22;8051;50.820;4.884;2022-11-03T08:50:48;12.90;99.90
15906;DHT22;8051;50.820;4.884;2022-11-03T08:53:19;12.80;99.90
15906;DHT22;8051;50.820;4.884;2022-11-03T08:55:48;12.90;99.90
15906;DHT22;8051;50.820;4.884;2022-11-03T08:58:15;12.90;99.90
15906;DHT22;8051;50.820;4.884;2022-11-03T09:00:43;12.90;99.90
15906;DHT22;8051;50.820;4.884;2022-11-03T09:03:10;12.90;99.90
15906;DHT22;8051;50.820;4.884;2022-11-03T09:05:37;12.90;99.90
15906;DHT22;8051;50.820;4.884;2022-11-03T09:08:05;12.90;99.90
15906;DHT22;8051;50.820;4.884;2022-11-03T09:10:33;12.90;99.90
15906;DHT22;8051;50.820;4.884;2022-11-03T09:13:02;12.90;99.90
15906;DHT22;8051;50.820;4.884;2022-11-03T09:15:30;12.90;99.90
15906;DHT22;8051;50.820;4.884;2022-11-03T09:17:58;12.90;99.90
15906;DHT22;8051;50.820;4.884;2022-11-03T09:20:25;12.90;99.90
15906;DHT22;8051;50.820;4.884;2022-11-03T09:22:53;12.90;99.90
15906;DHT22;8051;50.820;4.884;2022-11-03T09:25:20;12.90;99.90
15906;DHT22;8051;50.820;4.884;2022-11-03T09:27:48;13.00;99.90
15906;DHT22;8051;50.820;4.884;2022-11-03T09:30:17;13.00;99.90
15906;DHT22;8051;50.820;4.884;2022-11-03T09:32:46;13.00;99.90
15906;DHT22;8051;50.820;4.884;2022-11-03T09:35:13;13.00;99.90
15906;DHT22;8051;50.820;4.884;2022-11-03T09:37:41;13.10;99.90
15906;DHT22;8051;50.820;4.884;2022-11-03T09:40:12;13.10;99.90
15906;DHT22;8051;50.820;4.884;2022-11-03T09:42:40;13.10;99.90
15906;DHT22;8051;50.820;4.884;2022-11-03T09:45:09;13.10;99.90
15906;DHT22;8051;50.820;4.884;2022-11-03T09:47:40;13.10;99.90
15906;DHT22;8051;50.820;4.884;2022-11-03T09:50:13;13.10;99.90
15906;DHT22;8051;50.820;4.884;2022-11-03T09:52:41;13.20;99.90
15906;DHT22;8051;50.820;4.884;2022-11-03T09:55:13;13.20;99.90
15906;DHT22;8051;50.820;4.884;2022-11-03T09:57:42;13.30;99.90
15906;DHT22;8051;50.820;4.884;2022-11-03T10:00:16;13.30;99.90
15906;DHT22;8051;50.820;4.884;2022-11-03T10:02:47;13.30;99.90
15906;DHT22;8051;50.820;4.884;2022-11-03T10:05:18;13.40;99.90
15906;DHT22;8051;50.820;4.884;2022-11-03T10:07:46;13.50;99.90
15906;DHT22;8051;50.820;4.884;2022-11-03T10:10:19;13.70;99.90
15906;DHT22;8051;50.820;4.884;2022-11-03T10:12:48;13.70;99.90
15906;DHT22;8051;50.820;4.884;2022-11-03T10:15:18;13.80;99.90
15906;DHT22;8051;50.820;4.884;2022-11-03T10:17:47;13.80;99.90
15906;DHT22;8051;50.820;4.884;2022-11-03T10:20:17;13.80;99.90
15906;DHT22;8051;50.820;4.884;2022-11-03T10:22:45;13.90;99.90
15906;DHT22;8051;50.820;4.884;2022-11-03T10:25:34;14.00;99.90
15906;DHT22;8051;50.820;4.884;2022-11-03T10:28:13;14.30;99.90
15906;DHT22;8051;50.820;4.884;2022-11-03T10:30:51;14.40;99.90
15906;DHT22;8051;50.820;4.884;2022-11-03T10:33:31;14.60;99.90
15906;DHT22;8051;50.820;4.884;2022-11-03T10:35:59;14.70;99.90
15906;DHT22;8051;50.820;4.884;2022-11-03T10:38:28;14.70;99.90
15906;DHT22;8051;50.820;4.884;2022-11-03T10:41:09;14.70;99.90
15906;DHT22;8051;50.820;4.884;2022-11-03T10:43:38;14.70;99.90
15906;DHT22;8051;50.820;4.884;2022-11-03T10:46:15;14.80;99.90
15906;DHT22;8051;50.820;4.884;2022-11-03T10:49:01;14.70;99.90
15906;DHT22;8051;50.820;4.884;2022-11-03T10:51:29;14.80;99.90
15906;DHT22;8051;50.820;4.884;2022-11-03T10:53:56;14.80;99.90
15906;DHT22;8051;50.820;4.884;2022-11-03T10:56:24;14.70;99.90
15906;DHT22;8051;50.820;4.884;2022-11-03T10:58:52;14.70;99.90
15906;DHT22;8051;50.820;4.884;2022-11-03T11:01:19;14.70;99.90
15906;DHT22;8051;50.820;4.884;2022-11-03T11:03:48;14.70;99.90
15906;DHT22;8051;50.820;4.884;2022-11-03T11:06:18;14.70;99.90
15906;DHT22;8051;50.820;4.884;2022-11-03T11:08:47;14.70;99.90
15906;DHT22;8051;50.820;4.884;2022-11-03T11:11:16;14.70;99.90
15906;DHT22;8051;50.820;4.884;2022-11-03T11:13:43;14.70;99.90
15906;DHT22;8051;50.820;4.884;2022-11-03T11:16:47;14.70;99.90
15906;DHT22;8051;50.820;4.884;2022-11-03T11:19:17;14.60;99.90
15906;DHT22;8051;50.820;4.884;2022-11-03T11:22:00;14.70;99.90
15906;DHT22;8051;50.820;4.884;2022-11-03T11:25:00;14.70;99.90
15906;DHT22;8051;50.820;4.884;2022-11-03T11:30:59;14.80;99.90
15906;DHT22;8051;50.820;4.884;2022-11-03T11:33:27;14.90;99.90
15906;DHT22;8051;50.820;4.884;2022-11-03T11:36:20;15.00;99.90
15906;DHT22;8051;50.820;4.884;2022-11-03T11:39:09;15.00;99.90
15906;DHT22;8051;50.820;4.884;2022-11-03T11:42:05;15.10;99.90
15906;DHT22;8051;50.820;4.884;2022-11-03T11:44:54;15.20;99.90
15906;DHT22;8051;50.820;4.884;2022-11-03T11:47:45;15.20;99.90
15906;DHT22;8051;50.820;4.884;2022-11-03T11:50:30;15.10;99.90
15906;DHT22;8051;50.820;4.884;2022-11-03T11:53:11;15.20;99.90
15906;DHT22;8051;50.820;4.884;2022-11-03T11:55:43;15.30;99.90
15906;DHT22;8051;50.820;4.884;2022-11-03T11:58:30;15.40;99.90
15906;DHT22;8051;50.820;4.884;2022-11-03T12:01:02;15.50;99.90
15906;DHT22;8051;50.820;4.884;2022-11-03T12:03:34;15.60;99.90
15906;DHT22;8051;50.820;4.884;2022-11-03T12:06:02;15.60;99.90
15906;DHT22;8051;50.820;4.884;2022-11-03T12:08:31;15.60;99.90
15906;DHT22;8051;50.820;4.884;2022-11-03T12:11:00;15.50;99.90
15906;DHT22;8051;50.820;4.884;2022-11-03T12:13:49;15.60;99.90
15906;DHT22;8051;50.820;4.884;2022-11-03T12:16:41;15.60;99.90
15906;DHT22;8051;50.820;4.884;2022-11-03T12:19:37;15.70;99.90
15906;DHT22;8051;50.820;4.884;2022-11-03T12:22:06;15.80;99.90
15906;DHT22;8051;50.820;4.884;2022-11-03T12:24:49;15.80;99.90
15906;DHT22;8051;50.820;4.884;2022-11-03T12:27:19;15.90;99.90
15906;DHT22;8051;50.820;4.884;2022-11-03T12:30:11;15.80;99.90
15906;DHT22;8051;50.820;4.884;2022-11-03T12:32:38;15.70;99.90
15906;DHT22;8051;50.820;4.884;2022-11-03T12:35:07;15.60;99.90
15906;DHT22;8051;50.820;4.884;2022-11-03T12:37:35;15.50;99.90
15906;DHT22;8051;50.820;4.884;2022-11-03T12:40:06;15.40;99.90
15906;DHT22;8051;50.820;4.884;2022-11-03T12:42:33;15.40;99.90
15906;DHT22;8051;50.820;4.884;2022-11-03T12:45:01;15.30;99.90
15906;DHT22;8051;50.820;4.884;2022-11-03T12:47:28;15.20;99.90
15906;DHT22;8051;50.820;4.884;2022-11-03T12:49:56;15.20;99.90
15906;DHT22;8051;50.820;4.884;2022-11-03T12:52:23;15.10;99.90
15906;DHT22;8051;50.820;4.884;2022-11-03T12:54:51;15.10;99.90
15906;DHT22;8051;50.820;4.884;2022-11-03T12:57:19;15.00;99.90
15906;DHT22;8051;50.820;4.884;2022-11-03T12:59:47;15.00;99.90
15906;DHT22;8051;50.820;4.884;2022-11-03T13:02:16;14.90;99.90
15906;DHT22;8051;50.820;4.884;2022-11-03T13:04:43;14.90;99.90
15906;DHT22;8051;50.820;4.884;2022-11-03T13:07:10;14.80;99.90
15906;DHT22;8051;50.820;4.884;2022-11-03T13:09:38;14.60;99.90
15906;DHT22;8051;50.820;4.884;2022-11-03T13:12:05;14.60;99.90
15906;DHT22;8051;50.820;4.884;2022-11-03T13:14:57;14.50;99.90
15906;DHT22;8051;50.820;4.884;2022-11-03T13:17:25;14.40;99.90
15906;DHT22;8051;50.820;4.884;2022-11-03T13:19:52;14.30;99.90
15906;DHT22;8051;50.820;4.884;2022-11-03T13:22:20;14.00;99.90
15906;DHT22;8051;50.820;4.884;2022-11-03T13:24:47;13.80;99.90
15906;DHT22;8051;50.820;4.884;2022-11-03T13:27:15;13.60;99.90
15906;DHT22;8051;50.820;4.884;2022-11-03T13:29:42;13.40;99.90
15906;DHT22;8051;50.820;4.884;2022-11-03T13:32:11;13.20;99.90
15906;DHT22;8051;50.820;4.884;2022-11-03T13:34:38;13.10;99.90
15906;DHT22;8051;50.820;4.884;2022-11-03T13:37:06;12.90;99.90
15906;DHT22;8051;50.820;4.884;2022-11-03T13:39:33;12.80;99.90
15906;DHT22;8051;50.820;4.884;2022-11-03T13:42:01;12.70;99.90
15906;DHT22;8051;50.820;4.884;2022-11-03T13:44:29;12.70;99.90
15906;DHT22;8051;50.820;4.884;2022-11-03T13:46:56;12.60;99.90
15906;DHT22;8051;50.820;4.884;2022-11-03T13:49:25;12.60;99.90
15906;DHT22;8051;50.820;4.884;2022-11-03T13:51:52;12.70;99.90
15906;DHT22;8051;50.820;4.884;2022-11-03T13:54:19;12.70;99.90
15906;DHT22;8051;50.820;4.884;2022-11-03T13:56:47;12.80;99.90
15906;DHT22;8051;50.820;4.884;2022-11-03T13:59:14;12.90;99.90
15906;DHT22;8051;50.820;4.884;2022-11-03T14:01:41;12.90;99.90
15906;DHT22;8051;50.820;4.884;2022-11-03T14:04:09;12.90;99.90
15906;DHT22;8051;50.820;4.884;2022-11-03T14:06:38;13.00;99.90
15906;DHT22;8051;50.820;4.884;2022-11-03T14:09:05;13.00;99.90
15906;DHT22;8051;50.820;4.884;2022-11-03T14:11:33;13.10;99.90
15906;DHT22;8051;50.820;4.884;2022-11-03T14:14:17;13.20;99.90
15906;DHT22;8051;50.820;4.884;2022-11-03T14:16:45;13.30;99.90
15906;DHT22;8051;50.820;4.884;2022-11-03T14:19:12;13.30;99.90
15906;DHT22;8051;50.820;4.884;2022-11-03T14:21:41;13.40;99.90
15906;DHT22;8051;50.820;4.884;2022-11-03T14:24:09;13.40;99.90
15906;DHT22;8051;50.820;4.884;2022-11-03T14:26:36;13.40;99.90
15906;DHT22;8051;50.820;4.884;2022-11-03T14:29:04;13.40;99.90
15906;DHT22;8051;50.820;4.884;2022-11-03T14:31:31;13.40;99.90
15906;DHT22;8051;50.820;4.884;2022-11-03T14:33:58;13.40;99.90
15906;DHT22;8051;50.820;4.884;2022-11-03T14:36:26;13.30;99.90
15906;DHT22;8051;50.820;4.884;2022-11-03T14:38:55;13.30;99.90
15906;DHT22;8051;50.820;4.884;2022-11-03T14:41:22;13.30;99.90
15906;DHT22;8051;50.820;4.884;2022-11-03T14:44:07;13.20;99.90
15906;DHT22;8051;50.820;4.884;2022-11-03T14:46:35;13.10;99.90
15906;DHT22;8051;50.820;4.884;2022-11-03T14:49:02;12.90;99.90
15906;DHT22;8051;50.820;4.884;2022-11-03T14:51:30;12.70;99.90
15906;DHT22;8051;50.820;4.884;2022-11-03T14:53:59;12.70;99.90
15906;DHT22;8051;50.820;4.884;2022-11-03T14:56:26;12.60;99.90
15906;DHT22;8051;50.820;4.884;2022-11-03T14:58:54;12.60;99.90
15906;DHT22;8051;50.820;4.884;2022-11-03T15:01:21;12.70;99.90
15906;DHT22;8051;50.820;4.884;2022-11-03T15:03:48;12.70;99.90
15906;DHT22;8051;50.820;4.884;2022-11-03T15:06:16;12.70;99.90
15906;DHT22;8051;50.820;4.884;2022-11-03T15:08:43;12.70;99.90
15906;DHT22;8051;50.820;4.884;2022-11-03T15:11:12;12.70;99.90
15906;DHT22;8051;50.820;4.884;2022-11-03T15:13:39;12.70;99.90
15906;DHT22;8051;50.820;4.884;2022-11-03T15:16:07;12.70;99.90
15906;DHT22;8051;50.820;4.884;2022-11-03T15:18:34;12.70;99.90
15906;DHT22;8051;50.820;4.884;2022-11-03T15:21:02;12.70;99.90
15906;DHT22;8051;50.820;4.884;2022-11-03T15:23:29;12.70;99.90
15906;DHT22;8051;50.820;4.884;2022-11-03T15:25:57;12.70;99.90
15906;DHT22;8051;50.820;4.884;2022-11-03T15:28:25;12.70;99.90
15906;DHT22;8051;50.820;4.884;2022-11-03T15:30:53;12.60;99.90
15906;DHT22;8051;50.820;4.884;2022-11-03T15:33:20;12.60;99.90
15906;DHT22;8051;50.820;4.884;2022-11-03T15:35:48;12.60;99.90
15906;DHT22;8051;50.820;4.884;2022-11-03T15:38:15;12.60;99.90
15906;DHT22;8051;50.820;4.884;2022-11-03T15:40:43;12.50;99.90
15906;DHT22;8051;50.820;4.884;2022-11-03T15:43:11;12.40;99.90
15906;DHT22;8051;50.820;4.884;2022-11-03T15:45:41;12.40;99.90
15906;DHT22;8051;50.820;4.884;2022-11-03T15:48:09;12.30;99.90
15906;DHT22;8051;50.820;4.884;2022-11-03T15:50:36;12.20;99.90
15906;DHT22;8051;50.820;4.884;2022-11-03T15:53:03;12.10;99.90
15906;DHT22;8051;50.820;4.884;2022-11-03T15:55:31;12.10;99.90
15906;DHT22;8051;50.820;4.884;2022-11-03T15:57:58;12.00;99.90
15906;DHT22;8051;50.820;4.884;2022-11-03T16:00:26;12.00;99.90
15906;DHT22;8051;50.820;4.884;2022-11-03T16:02:55;11.90;99.90
15906;DHT22;8051;50.820;4.884;2022-11-03T16:05:22;11.80;99.90
15906;DHT22;8051;50.820;4.884;2022-11-03T16:07:49;11.80;99.90
15906;DHT22;8051;50.820;4.884;2022-11-03T16:10:17;11.80;99.90
15906;DHT22;8051;50.820;4.884;2022-11-03T16:12:44;11.70;99.90